Delta Virtual Airport Information Service

Athens Eleftherios Venizelos

ICAO: LGAV Country: Greece
Latitude: 37.9364 Longitude: 23.9445
Latest Arrival : DAC099 (KIAD-LGAV) Latest Departure : DAC345 (LGAV-RKSI)


WX CaptureLIVE
Data provided by noaa.gov | Fetched at 12:11:19

METAR : LGAV 241650Z 24006KT CAVOK 20/14 Q1016 NOSIG

TAF : LGAV 241100Z 2412/2512 VRB05KT 9999 FEW025 TEMPO 2415/2421 20010KT


Runway Data for LGAV
Data provided by openaviationdata.com

Runway ID Mag Var Hdg Length Elevation Surface ILS Freq ILS Id ILS Slope
03L 2 33° 12461 ft 308 ft Asphalt 110.5 IATL 3
03R 2 33° 13141 ft 308 ft Asphalt 111.1 IATR 3
21L 2 213° 13141 ft 308 ft Asphalt 111.1 IEVL 3
21R 2 213° 12461 ft 308 ft Asphalt 110.5 IEVR 3

Athens Eleftherios Venizelos, Greece
Use only for reference purposes



Not for navigational purposes.